sensor_id;sensor_type;location;lat;lon;timestamp;P1;durP1;ratioP1;P2;durP2;ratioP2
7150;SDS011;3617;48.836;9.172;2023-01-25T00:00:47;27.07;;;13.27;;
7150;SDS011;3617;48.836;9.172;2023-01-25T00:03:13;25.73;;;13.37;;
7150;SDS011;3617;48.836;9.172;2023-01-25T00:05:39;25.50;;;12.40;;
7150;SDS011;3617;48.836;9.172;2023-01-25T00:08:05;22.50;;;12.40;;
7150;SDS011;3617;48.836;9.172;2023-01-25T00:10:31;25.40;;;13.10;;
7150;SDS011;3617;48.836;9.172;2023-01-25T00:12:57;28.33;;;13.73;;
7150;SDS011;3617;48.836;9.172;2023-01-25T00:15:23;24.97;;;12.20;;
7150;SDS011;3617;48.836;9.172;2023-01-25T00:17:49;25.87;;;12.73;;
7150;SDS011;3617;48.836;9.172;2023-01-25T00:20:15;23.47;;;12.07;;
7150;SDS011;3617;48.836;9.172;2023-01-25T00:22:42;28.73;;;12.87;;
7150;SDS011;3617;48.836;9.172;2023-01-25T00:25:08;25.17;;;13.40;;
7150;SDS011;3617;48.836;9.172;2023-01-25T00:27:34;27.47;;;12.07;;
7150;SDS011;3617;48.836;9.172;2023-01-25T00:30:00;25.70;;;12.97;;
7150;SDS011;3617;48.836;9.172;2023-01-25T00:32:27;23.77;;;12.33;;
7150;SDS011;3617;48.836;9.172;2023-01-25T00:34:53;25.83;;;12.60;;
7150;SDS011;3617;48.836;9.172;2023-01-25T00:39:49;24.10;;;12.37;;
7150;SDS011;3617;48.836;9.172;2023-01-25T00:42:15;25.33;;;12.33;;
7150;SDS011;3617;48.836;9.172;2023-01-25T00:44:42;28.47;;;12.40;;
7150;SDS011;3617;48.836;9.172;2023-01-25T00:47:09;22.57;;;12.23;;
7150;SDS011;3617;48.836;9.172;2023-01-25T00:49:35;22.23;;;12.20;;
7150;SDS011;3617;48.836;9.172;2023-01-25T00:52:01;25.97;;;12.33;;
7150;SDS011;3617;48.836;9.172;2023-01-25T00:54:27;19.97;;;11.33;;
7150;SDS011;3617;48.836;9.172;2023-01-25T00:56:53;24.00;;;11.87;;
7150;SDS011;3617;48.836;9.172;2023-01-25T00:59:20;22.00;;;11.17;;
7150;SDS011;3617;48.836;9.172;2023-01-25T01:01:47;23.70;;;11.97;;
7150;SDS011;3617;48.836;9.172;2023-01-25T01:04:13;25.13;;;12.17;;
7150;SDS011;3617;48.836;9.172;2023-01-25T01:06:39;25.93;;;12.00;;
7150;SDS011;3617;48.836;9.172;2023-01-25T01:09:06;25.90;;;11.90;;
7150;SDS011;3617;48.836;9.172;2023-01-25T01:11:32;22.90;;;11.50;;
7150;SDS011;3617;48.836;9.172;2023-01-25T01:13:58;20.63;;;11.67;;
7150;SDS011;3617;48.836;9.172;2023-01-25T01:16:24;22.87;;;11.33;;
7150;SDS011;3617;48.836;9.172;2023-01-25T01:18:51;25.23;;;11.47;;
7150;SDS011;3617;48.836;9.172;2023-01-25T01:21:17;25.17;;;12.60;;
7150;SDS011;3617;48.836;9.172;2023-01-25T01:23:43;21.80;;;12.13;;
7150;SDS011;3617;48.836;9.172;2023-01-25T01:26:13;20.33;;;11.20;;
7150;SDS011;3617;48.836;9.172;2023-01-25T01:28:39;23.57;;;11.47;;
7150;SDS011;3617;48.836;9.172;2023-01-25T01:31:06;25.90;;;12.50;;
7150;SDS011;3617;48.836;9.172;2023-01-25T01:33:32;22.17;;;10.97;;
7150;SDS011;3617;48.836;9.172;2023-01-25T01:36:05;20.37;;;11.43;;
7150;SDS011;3617;48.836;9.172;2023-01-25T01:38:31;26.50;;;12.80;;
7150;SDS011;3617;48.836;9.172;2023-01-25T01:40:57;23.87;;;11.67;;
7150;SDS011;3617;48.836;9.172;2023-01-25T01:43:23;21.37;;;12.10;;
7150;SDS011;3617;48.836;9.172;2023-01-25T01:45:54;24.23;;;11.60;;
7150;SDS011;3617;48.836;9.172;2023-01-25T01:50:52;21.37;;;10.40;;
7150;SDS011;3617;48.836;9.172;2023-01-25T01:53:20;22.43;;;10.33;;
7150;SDS011;3617;48.836;9.172;2023-01-25T01:55:47;21.20;;;10.83;;
7150;SDS011;3617;48.836;9.172;2023-01-25T01:58:13;22.87;;;11.90;;
7150;SDS011;3617;48.836;9.172;2023-01-25T02:00:39;24.23;;;12.07;;
7150;SDS011;3617;48.836;9.172;2023-01-25T02:03:06;19.47;;;11.30;;
7150;SDS011;3617;48.836;9.172;2023-01-25T02:08:17;22.97;;;11.97;;
7150;SDS011;3617;48.836;9.172;2023-01-25T02:10:44;22.43;;;10.90;;
7150;SDS011;3617;48.836;9.172;2023-01-25T02:13:10;19.87;;;10.27;;
7150;SDS011;3617;48.836;9.172;2023-01-25T02:15:42;20.60;;;11.43;;
7150;SDS011;3617;48.836;9.172;2023-01-25T02:18:09;22.97;;;10.40;;
7150;SDS011;3617;48.836;9.172;2023-01-25T02:20:36;18.90;;;10.40;;
7150;SDS011;3617;48.836;9.172;2023-01-25T02:23:17;22.00;;;10.60;;
7150;SDS011;3617;48.836;9.172;2023-01-25T02:25:45;22.80;;;10.97;;
7150;SDS011;3617;48.836;9.172;2023-01-25T02:28:58;21.93;;;11.23;;
7150;SDS011;3617;48.836;9.172;2023-01-25T02:30:58;20.10;;;10.30;;
7150;SDS011;3617;48.836;9.172;2023-01-25T02:33:24;19.80;;;10.23;;
7150;SDS011;3617;48.836;9.172;2023-01-25T02:35:59;18.90;;;10.37;;
7150;SDS011;3617;48.836;9.172;2023-01-25T02:38:25;20.47;;;10.87;;
7150;SDS011;3617;48.836;9.172;2023-01-25T02:40:56;20.53;;;10.67;;
7150;SDS011;3617;48.836;9.172;2023-01-25T02:43:23;24.00;;;11.83;;
7150;SDS011;3617;48.836;9.172;2023-01-25T02:45:53;22.03;;;10.37;;
7150;SDS011;3617;48.836;9.172;2023-01-25T02:48:21;22.77;;;11.27;;
7150;SDS011;3617;48.836;9.172;2023-01-25T02:50:47;26.67;;;11.33;;
7150;SDS011;3617;48.836;9.172;2023-01-25T02:53:13;21.00;;;10.60;;
7150;SDS011;3617;48.836;9.172;2023-01-25T02:55:39;22.27;;;10.70;;
7150;SDS011;3617;48.836;9.172;2023-01-25T02:58:05;19.63;;;11.00;;
7150;SDS011;3617;48.836;9.172;2023-01-25T03:00:31;21.57;;;10.70;;
7150;SDS011;3617;48.836;9.172;2023-01-25T03:02:57;21.77;;;10.23;;
7150;SDS011;3617;48.836;9.172;2023-01-25T03:05:23;25.50;;;11.93;;
7150;SDS011;3617;48.836;9.172;2023-01-25T03:07:49;31.27;;;11.73;;
7150;SDS011;3617;48.836;9.172;2023-01-25T03:10:16;21.30;;;11.20;;
7150;SDS011;3617;48.836;9.172;2023-01-25T03:12:42;22.40;;;10.83;;
7150;SDS011;3617;48.836;9.172;2023-01-25T03:15:08;19.23;;;10.27;;
7150;SDS011;3617;48.836;9.172;2023-01-25T03:17:34;22.60;;;10.77;;
7150;SDS011;3617;48.836;9.172;2023-01-25T03:20:00;23.87;;;11.17;;
7150;SDS011;3617;48.836;9.172;2023-01-25T03:22:26;23.27;;;10.83;;
7150;SDS011;3617;48.836;9.172;2023-01-25T03:24:52;23.00;;;10.87;;
7150;SDS011;3617;48.836;9.172;2023-01-25T03:27:18;24.70;;;11.37;;
7150;SDS011;3617;48.836;9.172;2023-01-25T03:29:44;23.27;;;10.63;;
7150;SDS011;3617;48.836;9.172;2023-01-25T03:32:11;22.60;;;10.50;;
7150;SDS011;3617;48.836;9.172;2023-01-25T03:34:37;20.20;;;10.30;;
7150;SDS011;3617;48.836;9.172;2023-01-25T03:37:03;26.13;;;12.10;;
7150;SDS011;3617;48.836;9.172;2023-01-25T03:39:29;23.07;;;11.50;;
7150;SDS011;3617;48.836;9.172;2023-01-25T03:41:55;24.07;;;11.33;;
7150;SDS011;3617;48.836;9.172;2023-01-25T03:44:21;22.00;;;11.10;;
7150;SDS011;3617;48.836;9.172;2023-01-25T03:46:47;22.10;;;11.30;;
7150;SDS011;3617;48.836;9.172;2023-01-25T03:49:13;23.30;;;10.17;;
7150;SDS011;3617;48.836;9.172;2023-01-25T03:51:39;18.70;;;9.83;;
7150;SDS011;3617;48.836;9.172;2023-01-25T03:54:05;23.47;;;11.13;;
7150;SDS011;3617;48.836;9.172;2023-01-25T03:56:32;25.57;;;11.27;;
7150;SDS011;3617;48.836;9.172;2023-01-25T03:58:58;24.47;;;11.43;;
7150;SDS011;3617;48.836;9.172;2023-01-25T04:01:24;23.37;;;10.83;;
7150;SDS011;3617;48.836;9.172;2023-01-25T04:03:50;24.70;;;10.80;;
7150;SDS011;3617;48.836;9.172;2023-01-25T04:06:16;22.47;;;11.47;;
7150;SDS011;3617;48.836;9.172;2023-01-25T04:08:42;24.40;;;10.70;;
7150;SDS011;3617;48.836;9.172;2023-01-25T04:11:09;20.67;;;10.07;;
7150;SDS011;3617;48.836;9.172;2023-01-25T04:13:35;21.03;;;10.70;;
7150;SDS011;3617;48.836;9.172;2023-01-25T04:16:02;23.00;;;11.00;;
7150;SDS011;3617;48.836;9.172;2023-01-25T04:18:28;23.60;;;11.03;;
7150;SDS011;3617;48.836;9.172;2023-01-25T04:20:55;23.03;;;10.63;;
7150;SDS011;3617;48.836;9.172;2023-01-25T04:23:21;21.17;;;10.90;;
7150;SDS011;3617;48.836;9.172;2023-01-25T04:25:51;22.50;;;10.67;;
7150;SDS011;3617;48.836;9.172;2023-01-25T04:28:17;20.40;;;9.70;;
7150;SDS011;3617;48.836;9.172;2023-01-25T04:30:43;21.37;;;10.07;;
7150;SDS011;3617;48.836;9.172;2023-01-25T04:33:09;19.50;;;10.43;;
7150;SDS011;3617;48.836;9.172;2023-01-25T04:35:36;21.43;;;10.13;;
7150;SDS011;3617;48.836;9.172;2023-01-25T04:38:02;25.17;;;11.00;;
7150;SDS011;3617;48.836;9.172;2023-01-25T04:40:28;17.00;;;9.17;;
7150;SDS011;3617;48.836;9.172;2023-01-25T04:42:54;21.17;;;9.70;;
7150;SDS011;3617;48.836;9.172;2023-01-25T04:45:20;15.83;;;9.23;;
7150;SDS011;3617;48.836;9.172;2023-01-25T04:47:46;20.77;;;9.77;;
7150;SDS011;3617;48.836;9.172;2023-01-25T04:50:12;19.73;;;9.47;;
7150;SDS011;3617;48.836;9.172;2023-01-25T04:52:38;18.30;;;9.83;;
7150;SDS011;3617;48.836;9.172;2023-01-25T04:55:04;19.60;;;9.83;;
7150;SDS011;3617;48.836;9.172;2023-01-25T04:57:31;19.50;;;9.37;;
7150;SDS011;3617;48.836;9.172;2023-01-25T04:59:56;17.33;;;9.67;;
7150;SDS011;3617;48.836;9.172;2023-01-25T05:02:22;19.20;;;10.07;;
7150;SDS011;3617;48.836;9.172;2023-01-25T05:04:48;16.30;;;8.60;;
7150;SDS011;3617;48.836;9.172;2023-01-25T05:07:14;18.73;;;10.00;;
7150;SDS011;3617;48.836;9.172;2023-01-25T05:09:40;15.80;;;8.77;;
7150;SDS011;3617;48.836;9.172;2023-01-25T05:12:06;16.17;;;8.53;;
7150;SDS011;3617;48.836;9.172;2023-01-25T05:14:36;16.53;;;9.37;;
7150;SDS011;3617;48.836;9.172;2023-01-25T05:17:02;20.63;;;9.40;;
7150;SDS011;3617;48.836;9.172;2023-01-25T05:19:28;19.70;;;9.90;;
7150;SDS011;3617;48.836;9.172;2023-01-25T05:21:54;22.77;;;12.73;;
7150;SDS011;3617;48.836;9.172;2023-01-25T05:24:24;30.10;;;14.80;;
7150;SDS011;3617;48.836;9.172;2023-01-25T05:26:50;66.37;;;25.73;;
7150;SDS011;3617;48.836;9.172;2023-01-25T05:29:27;36.20;;;14.83;;
7150;SDS011;3617;48.836;9.172;2023-01-25T05:31:53;73.40;;;26.83;;
7150;SDS011;3617;48.836;9.172;2023-01-25T05:34:19;69.27;;;27.13;;
7150;SDS011;3617;48.836;9.172;2023-01-25T05:36:45;42.93;;;17.90;;
7150;SDS011;3617;48.836;9.172;2023-01-25T05:39:11;26.23;;;12.93;;
7150;SDS011;3617;48.836;9.172;2023-01-25T05:41:37;26.47;;;13.13;;
7150;SDS011;3617;48.836;9.172;2023-01-25T05:44:03;23.23;;;11.70;;
7150;SDS011;3617;48.836;9.172;2023-01-25T05:46:29;20.83;;;10.20;;
7150;SDS011;3617;48.836;9.172;2023-01-25T05:48:55;23.37;;;12.00;;
7150;SDS011;3617;48.836;9.172;2023-01-25T05:51:21;19.07;;;10.00;;
7150;SDS011;3617;48.836;9.172;2023-01-25T05:53:47;18.00;;;9.53;;
7150;SDS011;3617;48.836;9.172;2023-01-25T05:56:13;18.30;;;10.17;;
7150;SDS011;3617;48.836;9.172;2023-01-25T05:58:39;17.93;;;9.03;;
7150;SDS011;3617;48.836;9.172;2023-01-25T06:01:06;14.37;;;7.77;;
7150;SDS011;3617;48.836;9.172;2023-01-25T06:03:32;15.13;;;8.13;;
7150;SDS011;3617;48.836;9.172;2023-01-25T06:05:59;12.47;;;7.87;;
7150;SDS011;3617;48.836;9.172;2023-01-25T06:08:27;15.50;;;8.67;;
7150;SDS011;3617;48.836;9.172;2023-01-25T06:10:53;17.00;;;8.77;;
7150;SDS011;3617;48.836;9.172;2023-01-25T06:13:19;15.43;;;8.27;;
7150;SDS011;3617;48.836;9.172;2023-01-25T06:15:55;20.40;;;11.17;;
7150;SDS011;3617;48.836;9.172;2023-01-25T06:18:22;18.07;;;9.10;;
7150;SDS011;3617;48.836;9.172;2023-01-25T06:20:48;16.10;;;8.63;;
7150;SDS011;3617;48.836;9.172;2023-01-25T06:23:14;20.30;;;10.57;;
7150;SDS011;3617;48.836;9.172;2023-01-25T06:25:40;21.60;;;10.33;;
7150;SDS011;3617;48.836;9.172;2023-01-25T06:28:07;22.43;;;11.53;;
7150;SDS011;3617;48.836;9.172;2023-01-25T06:30:33;24.03;;;11.37;;
7150;SDS011;3617;48.836;9.172;2023-01-25T06:32:59;20.63;;;10.07;;
7150;SDS011;3617;48.836;9.172;2023-01-25T06:35:25;22.67;;;10.60;;
7150;SDS011;3617;48.836;9.172;2023-01-25T06:37:55;21.90;;;10.47;;
7150;SDS011;3617;48.836;9.172;2023-01-25T06:40:21;20.37;;;9.23;;
7150;SDS011;3617;48.836;9.172;2023-01-25T06:42:47;23.17;;;10.57;;
7150;SDS011;3617;48.836;9.172;2023-01-25T06:45:14;21.97;;;10.93;;
7150;SDS011;3617;48.836;9.172;2023-01-25T06:47:40;14.33;;;8.90;;
7150;SDS011;3617;48.836;9.172;2023-01-25T06:50:06;21.90;;;11.50;;
7150;SDS011;3617;48.836;9.172;2023-01-25T06:52:32;15.17;;;8.20;;
7150;SDS011;3617;48.836;9.172;2023-01-25T06:55:01;19.30;;;9.57;;
7150;SDS011;3617;48.836;9.172;2023-01-25T06:57:27;21.07;;;10.03;;
7150;SDS011;3617;48.836;9.172;2023-01-25T06:59:54;17.37;;;8.73;;
7150;SDS011;3617;48.836;9.172;2023-01-25T07:02:20;16.33;;;8.67;;
7150;SDS011;3617;48.836;9.172;2023-01-25T07:04:46;13.20;;;8.53;;
7150;SDS011;3617;48.836;9.172;2023-01-25T07:07:12;17.30;;;8.37;;
7150;SDS011;3617;48.836;9.172;2023-01-25T07:09:38;17.07;;;8.07;;
7150;SDS011;3617;48.836;9.172;2023-01-25T07:12:04;18.90;;;9.77;;
7150;SDS011;3617;48.836;9.172;2023-01-25T07:14:30;21.07;;;10.47;;
7150;SDS011;3617;48.836;9.172;2023-01-25T07:16:56;18.37;;;9.03;;
7150;SDS011;3617;48.836;9.172;2023-01-25T07:19:22;16.93;;;8.27;;
7150;SDS011;3617;48.836;9.172;2023-01-25T07:21:48;17.47;;;8.70;;
7150;SDS011;3617;48.836;9.172;2023-01-25T07:24:15;14.03;;;7.70;;
7150;SDS011;3617;48.836;9.172;2023-01-25T07:26:42;14.43;;;7.73;;
7150;SDS011;3617;48.836;9.172;2023-01-25T07:29:08;16.03;;;7.47;;
7150;SDS011;3617;48.836;9.172;2023-01-25T07:31:36;14.00;;;7.93;;
7150;SDS011;3617;48.836;9.172;2023-01-25T07:34:02;11.27;;;6.83;;
7150;SDS011;3617;48.836;9.172;2023-01-25T07:36:28;11.37;;;6.90;;
7150;SDS011;3617;48.836;9.172;2023-01-25T07:38:55;15.10;;;8.07;;
7150;SDS011;3617;48.836;9.172;2023-01-25T07:41:22;11.97;;;7.17;;
7150;SDS011;3617;48.836;9.172;2023-01-25T07:43:48;14.40;;;7.17;;
7150;SDS011;3617;48.836;9.172;2023-01-25T07:46:14;11.80;;;7.03;;
7150;SDS011;3617;48.836;9.172;2023-01-25T07:48:45;11.93;;;6.40;;
7150;SDS011;3617;48.836;9.172;2023-01-25T07:51:11;12.47;;;7.10;;
7150;SDS011;3617;48.836;9.172;2023-01-25T07:53:46;14.90;;;7.33;;
7150;SDS011;3617;48.836;9.172;2023-01-25T07:56:12;13.20;;;7.17;;
7150;SDS011;3617;48.836;9.172;2023-01-25T07:58:38;13.93;;;7.67;;
7150;SDS011;3617;48.836;9.172;2023-01-25T08:01:05;14.03;;;7.20;;
7150;SDS011;3617;48.836;9.172;2023-01-25T08:03:31;10.87;;;6.40;;
7150;SDS011;3617;48.836;9.172;2023-01-25T08:05:57;12.17;;;7.13;;
7150;SDS011;3617;48.836;9.172;2023-01-25T08:08:23;12.43;;;7.00;;
7150;SDS011;3617;48.836;9.172;2023-01-25T08:10:49;14.83;;;7.90;;
7150;SDS011;3617;48.836;9.172;2023-01-25T08:13:15;15.33;;;7.17;;
7150;SDS011;3617;48.836;9.172;2023-01-25T08:15:41;14.60;;;8.00;;
7150;SDS011;3617;48.836;9.172;2023-01-25T08:18:07;17.43;;;8.43;;
7150;SDS011;3617;48.836;9.172;2023-01-25T08:20:33;15.17;;;8.17;;
7150;SDS011;3617;48.836;9.172;2023-01-25T08:23:00;12.10;;;7.73;;
7150;SDS011;3617;48.836;9.172;2023-01-25T08:25:26;13.03;;;7.50;;
7150;SDS011;3617;48.836;9.172;2023-01-25T08:27:52;12.07;;;7.03;;
7150;SDS011;3617;48.836;9.172;2023-01-25T08:30:18;12.50;;;7.67;;
7150;SDS011;3617;48.836;9.172;2023-01-25T08:32:44;12.77;;;7.73;;
7150;SDS011;3617;48.836;9.172;2023-01-25T08:35:10;12.37;;;6.93;;
7150;SDS011;3617;48.836;9.172;2023-01-25T08:37:36;14.37;;;6.70;;
7150;SDS011;3617;48.836;9.172;2023-01-25T08:40:02;13.00;;;6.70;;
7150;SDS011;3617;48.836;9.172;2023-01-25T08:42:28;12.23;;;7.03;;
7150;SDS011;3617;48.836;9.172;2023-01-25T08:44:54;10.87;;;6.67;;
7150;SDS011;3617;48.836;9.172;2023-01-25T08:47:20;14.83;;;7.63;;
7150;SDS011;3617;48.836;9.172;2023-01-25T08:49:46;13.17;;;7.33;;
7150;SDS011;3617;48.836;9.172;2023-01-25T08:52:12;12.03;;;6.70;;
7150;SDS011;3617;48.836;9.172;2023-01-25T08:54:39;12.87;;;6.80;;
7150;SDS011;3617;48.836;9.172;2023-01-25T08:57:08;12.03;;;6.67;;
7150;SDS011;3617;48.836;9.172;2023-01-25T08:59:34;11.73;;;6.97;;
7150;SDS011;3617;48.836;9.172;2023-01-25T09:02:00;11.43;;;6.73;;
7150;SDS011;3617;48.836;9.172;2023-01-25T09:04:26;14.20;;;7.03;;
7150;SDS011;3617;48.836;9.172;2023-01-25T09:06:52;11.87;;;6.67;;
7150;SDS011;3617;48.836;9.172;2023-01-25T09:09:19;11.50;;;6.97;;
7150;SDS011;3617;48.836;9.172;2023-01-25T09:11:46;11.17;;;6.40;;
7150;SDS011;3617;48.836;9.172;2023-01-25T09:14:12;12.40;;;7.20;;
7150;SDS011;3617;48.836;9.172;2023-01-25T09:16:38;13.30;;;6.67;;
7150;SDS011;3617;48.836;9.172;2023-01-25T09:19:04;14.40;;;8.13;;
7150;SDS011;3617;48.836;9.172;2023-01-25T09:21:30;12.83;;;6.67;;
7150;SDS011;3617;48.836;9.172;2023-01-25T09:23:57;11.97;;;6.97;;
7150;SDS011;3617;48.836;9.172;2023-01-25T09:26:23;10.63;;;6.47;;
7150;SDS011;3617;48.836;9.172;2023-01-25T09:28:50;16.00;;;7.50;;
7150;SDS011;3617;48.836;9.172;2023-01-25T09:31:17;14.93;;;6.53;;
7150;SDS011;3617;48.836;9.172;2023-01-25T09:33:43;12.77;;;6.67;;
7150;SDS011;3617;48.836;9.172;2023-01-25T09:36:09;11.00;;;6.47;;
7150;SDS011;3617;48.836;9.172;2023-01-25T09:38:35;12.47;;;7.30;;
7150;SDS011;3617;48.836;9.172;2023-01-25T09:45:59;13.53;;;6.97;;
7150;SDS011;3617;48.836;9.172;2023-01-25T09:48:36;14.70;;;6.90;;
7150;SDS011;3617;48.836;9.172;2023-01-25T09:53:39;10.73;;;6.53;;
7150;SDS011;3617;48.836;9.172;2023-01-25T09:56:11;14.60;;;6.93;;
7150;SDS011;3617;48.836;9.172;2023-01-25T09:58:39;11.87;;;6.50;;
7150;SDS011;3617;48.836;9.172;2023-01-25T10:01:13;12.77;;;6.40;;
7150;SDS011;3617;48.836;9.172;2023-01-25T10:03:42;14.93;;;7.57;;
7150;SDS011;3617;48.836;9.172;2023-01-25T10:06:11;14.17;;;7.60;;
7150;SDS011;3617;48.836;9.172;2023-01-25T10:08:41;13.13;;;6.97;;
7150;SDS011;3617;48.836;9.172;2023-01-25T10:11:13;15.37;;;7.77;;
7150;SDS011;3617;48.836;9.172;2023-01-25T10:13:41;11.23;;;6.63;;
7150;SDS011;3617;48.836;9.172;2023-01-25T10:16:12;14.83;;;8.47;;
7150;SDS011;3617;48.836;9.172;2023-01-25T10:21:16;15.23;;;7.97;;
7150;SDS011;3617;48.836;9.172;2023-01-25T10:24:00;13.90;;;7.50;;
7150;SDS011;3617;48.836;9.172;2023-01-25T10:26:34;13.70;;;7.70;;
7150;SDS011;3617;48.836;9.172;2023-01-25T10:29:19;16.20;;;7.90;;
7150;SDS011;3617;48.836;9.172;2023-01-25T10:31:46;15.93;;;7.20;;
7150;SDS011;3617;48.836;9.172;2023-01-25T10:34:27;13.50;;;7.70;;
7150;SDS011;3617;48.836;9.172;2023-01-25T10:36:55;14.80;;;7.77;;
7150;SDS011;3617;48.836;9.172;2023-01-25T10:39:22;14.80;;;6.97;;
7150;SDS011;3617;48.836;9.172;2023-01-25T10:42:01;14.87;;;8.20;;
7150;SDS011;3617;48.836;9.172;2023-01-25T10:44:29;12.87;;;7.50;;
7150;SDS011;3617;48.836;9.172;2023-01-25T10:49:31;13.03;;;7.67;;
7150;SDS011;3617;48.836;9.172;2023-01-25T10:52:10;12.80;;;8.03;;
7150;SDS011;3617;48.836;9.172;2023-01-25T10:54:37;12.23;;;7.53;;
7150;SDS011;3617;48.836;9.172;2023-01-25T10:57:04;13.00;;;7.43;;
7150;SDS011;3617;48.836;9.172;2023-01-25T10:59:31;15.83;;;8.80;;
7150;SDS011;3617;48.836;9.172;2023-01-25T11:02:18;13.97;;;7.47;;
7150;SDS011;3617;48.836;9.172;2023-01-25T11:04:43;16.53;;;7.70;;
7150;SDS011;3617;48.836;9.172;2023-01-25T11:07:24;15.67;;;7.87;;
7150;SDS011;3617;48.836;9.172;2023-01-25T11:09:50;15.20;;;7.77;;
7150;SDS011;3617;48.836;9.172;2023-01-25T11:12:17;18.07;;;8.00;;
7150;SDS011;3617;48.836;9.172;2023-01-25T11:14:44;13.27;;;7.87;;
7150;SDS011;3617;48.836;9.172;2023-01-25T11:17:23;17.93;;;8.53;;
7150;SDS011;3617;48.836;9.172;2023-01-25T11:20:23;15.60;;;9.07;;
7150;SDS011;3617;48.836;9.172;2023-01-25T11:22:52;16.03;;;8.37;;
7150;SDS011;3617;48.836;9.172;2023-01-25T11:27:51;14.97;;;8.10;;
7150;SDS011;3617;48.836;9.172;2023-01-25T11:30:17;15.00;;;8.57;;
7150;SDS011;3617;48.836;9.172;2023-01-25T11:32:43;14.80;;;8.03;;
7150;SDS011;3617;48.836;9.172;2023-01-25T11:35:13;16.97;;;9.00;;
7150;SDS011;3617;48.836;9.172;2023-01-25T11:37:56;14.90;;;8.00;;
7150;SDS011;3617;48.836;9.172;2023-01-25T11:43:02;16.50;;;7.97;;
7150;SDS011;3617;48.836;9.172;2023-01-25T11:50:30;16.77;;;7.83;;
7150;SDS011;3617;48.836;9.172;2023-01-25T11:55:28;15.03;;;7.37;;
7150;SDS011;3617;48.836;9.172;2023-01-25T12:05:56;16.97;;;8.63;;
7150;SDS011;3617;48.836;9.172;2023-01-25T12:13:31;15.23;;;8.30;;
7150;SDS011;3617;48.836;9.172;2023-01-25T12:16:07;16.73;;;8.20;;
7150;SDS011;3617;48.836;9.172;2023-01-25T12:18:44;17.27;;;8.47;;
7150;SDS011;3617;48.836;9.172;2023-01-25T12:26:21;15.43;;;7.70;;
7150;SDS011;3617;48.836;9.172;2023-01-25T12:28:53;17.97;;;9.10;;
7150;SDS011;3617;48.836;9.172;2023-01-25T12:31:34;16.07;;;8.23;;
7150;SDS011;3617;48.836;9.172;2023-01-25T12:34:02;15.43;;;8.80;;
7150;SDS011;3617;48.836;9.172;2023-01-25T12:36:30;17.53;;;9.33;;
7150;SDS011;3617;48.836;9.172;2023-01-25T12:39:00;15.07;;;8.23;;
7150;SDS011;3617;48.836;9.172;2023-01-25T12:43:55;16.57;;;8.10;;
7150;SDS011;3617;48.836;9.172;2023-01-25T12:46:44;18.77;;;9.47;;
7150;SDS011;3617;48.836;9.172;2023-01-25T12:49:19;18.17;;;8.60;;
7150;SDS011;3617;48.836;9.172;2023-01-25T12:51:47;13.57;;;8.23;;
7150;SDS011;3617;48.836;9.172;2023-01-25T12:54:33;14.87;;;7.97;;
7150;SDS011;3617;48.836;9.172;2023-01-25T13:05:33;17.00;;;9.00;;
7150;SDS011;3617;48.836;9.172;2023-01-25T13:08:04;20.03;;;9.53;;
7150;SDS011;3617;48.836;9.172;2023-01-25T13:10:47;19.53;;;9.30;;
7150;SDS011;3617;48.836;9.172;2023-01-25T13:13:22;17.97;;;9.13;;
7150;SDS011;3617;48.836;9.172;2023-01-25T13:15:49;16.90;;;8.93;;
7150;SDS011;3617;48.836;9.172;2023-01-25T13:23:34;18.50;;;9.13;;
7150;SDS011;3617;48.836;9.172;2023-01-25T13:28:47;18.83;;;9.73;;
7150;SDS011;3617;48.836;9.172;2023-01-25T13:33:54;18.47;;;9.20;;
7150;SDS011;3617;48.836;9.172;2023-01-25T13:37:12;17.80;;;9.63;;
7150;SDS011;3617;48.836;9.172;2023-01-25T13:42:15;20.73;;;10.37;;
7150;SDS011;3617;48.836;9.172;2023-01-25T13:44:43;19.37;;;10.43;;
7150;SDS011;3617;48.836;9.172;2023-01-25T13:47:10;22.00;;;11.00;;
7150;SDS011;3617;48.836;9.172;2023-01-25T13:52:27;19.37;;;9.70;;
7150;SDS011;3617;48.836;9.172;2023-01-25T13:54:55;20.20;;;9.97;;
7150;SDS011;3617;48.836;9.172;2023-01-25T13:57:23;16.63;;;9.13;;
7150;SDS011;3617;48.836;9.172;2023-01-25T13:59:59;21.57;;;10.70;;
7150;SDS011;3617;48.836;9.172;2023-01-25T14:02:25;20.63;;;10.47;;
7150;SDS011;3617;48.836;9.172;2023-01-25T14:04:51;21.17;;;10.57;;
7150;SDS011;3617;48.836;9.172;2023-01-25T14:07:20;20.90;;;10.80;;
7150;SDS011;3617;48.836;9.172;2023-01-25T14:09:47;18.03;;;10.43;;
7150;SDS011;3617;48.836;9.172;2023-01-25T14:12:20;23.13;;;11.27;;
7150;SDS011;3617;48.836;9.172;2023-01-25T14:14:49;19.67;;;10.30;;
7150;SDS011;3617;48.836;9.172;2023-01-25T14:17:16;18.47;;;10.23;;
7150;SDS011;3617;48.836;9.172;2023-01-25T14:19:46;21.17;;;10.83;;
7150;SDS011;3617;48.836;9.172;2023-01-25T14:22:18;22.70;;;10.67;;
7150;SDS011;3617;48.836;9.172;2023-01-25T14:24:45;21.47;;;11.43;;
7150;SDS011;3617;48.836;9.172;2023-01-25T14:27:11;22.33;;;11.33;;
7150;SDS011;3617;48.836;9.172;2023-01-25T14:29:38;24.03;;;11.40;;
7150;SDS011;3617;48.836;9.172;2023-01-25T14:32:04;21.87;;;10.60;;
7150;SDS011;3617;48.836;9.172;2023-01-25T14:34:30;20.63;;;11.13;;
7150;SDS011;3617;48.836;9.172;2023-01-25T14:37:03;20.03;;;10.47;;
7150;SDS011;3617;48.836;9.172;2023-01-25T14:39:31;21.00;;;9.80;;
7150;SDS011;3617;48.836;9.172;2023-01-25T14:41:57;20.33;;;10.63;;
7150;SDS011;3617;48.836;9.172;2023-01-25T14:44:24;20.90;;;11.07;;
7150;SDS011;3617;48.836;9.172;2023-01-25T14:47:17;23.10;;;10.80;;
7150;SDS011;3617;48.836;9.172;2023-01-25T14:49:36;21.27;;;10.23;;
7150;SDS011;3617;48.836;9.172;2023-01-25T14:52:09;24.00;;;11.80;;
7150;SDS011;3617;48.836;9.172;2023-01-25T14:54:54;22.63;;;10.90;;
7150;SDS011;3617;48.836;9.172;2023-01-25T14:57:35;17.30;;;9.37;;
7150;SDS011;3617;48.836;9.172;2023-01-25T15:00:06;20.90;;;10.80;;
7150;SDS011;3617;48.836;9.172;2023-01-25T15:02:50;21.93;;;11.27;;
7150;SDS011;3617;48.836;9.172;2023-01-25T15:05:21;19.50;;;10.87;;
7150;SDS011;3617;48.836;9.172;2023-01-25T15:07:52;21.00;;;11.10;;
7150;SDS011;3617;48.836;9.172;2023-01-25T15:10:26;23.70;;;11.67;;
7150;SDS011;3617;48.836;9.172;2023-01-25T15:12:56;21.43;;;11.60;;
7150;SDS011;3617;48.836;9.172;2023-01-25T15:15:23;23.03;;;10.80;;
7150;SDS011;3617;48.836;9.172;2023-01-25T15:17:49;21.13;;;11.20;;
7150;SDS011;3617;48.836;9.172;2023-01-25T15:25:29;20.50;;;11.60;;
7150;SDS011;3617;48.836;9.172;2023-01-25T15:27:55;22.60;;;11.17;;
7150;SDS011;3617;48.836;9.172;2023-01-25T15:30:21;24.43;;;12.87;;
7150;SDS011;3617;48.836;9.172;2023-01-25T15:32:47;22.07;;;11.27;;
7150;SDS011;3617;48.836;9.172;2023-01-25T15:35:15;22.43;;;11.40;;
7150;SDS011;3617;48.836;9.172;2023-01-25T15:37:43;22.17;;;12.03;;
7150;SDS011;3617;48.836;9.172;2023-01-25T15:40:09;26.57;;;13.27;;
7150;SDS011;3617;48.836;9.172;2023-01-25T15:42:37;28.60;;;13.43;;
7150;SDS011;3617;48.836;9.172;2023-01-25T15:45:03;22.07;;;12.07;;
7150;SDS011;3617;48.836;9.172;2023-01-25T15:47:30;23.87;;;12.23;;
7150;SDS011;3617;48.836;9.172;2023-01-25T15:49:56;27.07;;;13.43;;
7150;SDS011;3617;48.836;9.172;2023-01-25T15:52:22;25.67;;;13.30;;
7150;SDS011;3617;48.836;9.172;2023-01-25T15:54:47;24.77;;;12.83;;
7150;SDS011;3617;48.836;9.172;2023-01-25T15:57:27;26.30;;;12.90;;
7150;SDS011;3617;48.836;9.172;2023-01-25T15:59:54;25.10;;;13.27;;
7150;SDS011;3617;48.836;9.172;2023-01-25T16:02:22;24.53;;;12.87;;
7150;SDS011;3617;48.836;9.172;2023-01-25T16:04:48;25.30;;;13.57;;
7150;SDS011;3617;48.836;9.172;2023-01-25T16:07:22;26.77;;;13.50;;
7150;SDS011;3617;48.836;9.172;2023-01-25T16:09:48;25.33;;;12.47;;
7150;SDS011;3617;48.836;9.172;2023-01-25T16:12:14;25.43;;;12.37;;
7150;SDS011;3617;48.836;9.172;2023-01-25T16:14:41;27.20;;;13.47;;
7150;SDS011;3617;48.836;9.172;2023-01-25T16:17:10;27.53;;;13.90;;
7150;SDS011;3617;48.836;9.172;2023-01-25T16:19:37;24.07;;;13.77;;
7150;SDS011;3617;48.836;9.172;2023-01-25T16:22:03;24.70;;;12.33;;